Time;durP1;ratioP1;P1;durP2;ratioP2;P2;SDS_P1;SDS_P2;PMS_P1;PMS_P2;Temp;Humidity;BMP_temperature;BMP_pressure;BME280_temperature;BME280_humidity;BME280_pressure;Samples;Min_cycle;Max_cycle;Signal;HPM_P1;HPM_P2
2023/05/08 00:00:47;;;;;;;21.73;15.60;;;11.40;99.90;;;;;;4145728;28;20030;-55
2023/05/08 00:02:48;;;;;;;16.97;13.40;;;11.40;99.90;;;;;;4144439;28;20033;-66
2023/05/08 00:04:49;;;;;;;19.47;11.23;;;11.50;99.90;;;;;;4145734;28;20030;-58
2023/05/08 00:06:51;;;;;;;12.23;9.43;;;11.40;99.90;;;;;;4144111;28;20104;-67
2023/05/08 00:08:54;;;;;;;12.80;9.23;;;11.30;99.90;;;;;;4145219;28;20030;-71
2023/05/08 00:10:55;;;;;;;12.33;8.90;;;11.30;99.90;;;;;;4144940;28;20084;-64
2023/05/08 00:12:56;;;;;;;15.20;9.30;;;11.30;99.90;;;;;;4145100;28;20046;-72
2023/05/08 00:14:57;;;;;;;14.03;8.93;;;11.20;99.90;;;;;;4145496;28;20026;-66
2023/05/08 00:16:58;;;;;;;16.10;9.30;;;11.20;99.90;;;;;;4144352;28;20433;-63
2023/05/08 00:18:59;;;;;;;13.00;8.87;;;11.20;99.90;;;;;;4144404;28;20042;-65
2023/05/08 00:21:01;;;;;;;14.33;9.10;;;11.20;99.90;;;;;;4143900;28;20491;-57
2023/05/08 00:23:02;;;;;;;18.70;9.83;;;11.20;99.90;;;;;;4145634;28;20478;-71
2023/05/08 00:25:04;;;;;;;14.27;8.93;;;11.20;99.90;;;;;;4144434;28;20033;-58
2023/05/08 00:27:07;;;;;;;12.97;9.17;;;11.20;99.90;;;;;;4145444;28;20108;-63
2023/05/08 00:29:08;;;;;;;16.30;9.57;;;11.20;99.90;;;;;;4144301;28;20084;-67
2023/05/08 00:31:09;;;;;;;15.27;10.33;;;11.20;99.90;;;;;;4145013;28;20096;-70
2023/05/08 00:33:10;;;;;;;17.00;9.93;;;11.20;99.90;;;;;;4143861;28;20046;-59
2023/05/08 00:35:11;;;;;;;15.17;9.57;;;11.20;99.90;;;;;;4145489;28;20069;-70
2023/05/08 00:37:13;;;;;;;16.00;10.57;;;11.20;99.90;;;;;;4143934;28;20022;-67
2023/05/08 00:39:14;;;;;;;16.97;9.63;;;11.20;99.90;;;;;;4145641;28;21098;-68
2023/05/08 00:41:15;;;;;;;15.63;10.10;;;11.20;99.90;;;;;;4144546;28;20022;-66
2023/05/08 00:43:16;;;;;;;12.30;9.67;;;11.20;99.90;;;;;;4144430;28;20761;-64
2023/05/08 00:45:17;;;;;;;16.77;10.00;;;11.20;99.90;;;;;;4145152;28;20360;-56
2023/05/08 00:47:21;;;;;;;13.73;9.37;;;11.20;99.90;;;;;;4143448;28;20057;-59
2023/05/08 00:49:22;;;;;;;15.37;9.00;;;11.20;99.90;;;;;;4144746;28;20376;-58
2023/05/08 00:51:24;;;;;;;14.03;9.43;;;11.20;99.90;;;;;;4144193;28;20029;-57
2023/05/08 00:53:26;;;;;;;15.83;10.37;;;11.30;99.90;;;;;;4145264;28;20080;-65
2023/05/08 00:55:28;;;;;;;12.20;8.93;;;11.30;99.90;;;;;;4143742;28;20502;-58
2023/05/08 00:57:33;;;;;;;12.87;9.70;;;11.30;99.90;;;;;;4144915;28;20053;-62
2023/05/08 00:59:35;;;;;;;12.53;8.83;;;11.40;99.90;;;;;;4143975;28;20030;-57
2023/05/08 01:01:38;;;;;;;12.97;9.33;;;11.40;99.90;;;;;;4144753;28;20087;-56
2023/05/08 01:03:39;;;;;;;13.30;9.40;;;11.40;99.90;;;;;;4145155;28;20434;-67
2023/05/08 01:05:42;;;;;;;13.90;9.93;;;11.40;99.90;;;;;;4145157;28;20076;-66
2023/05/08 01:07:43;;;;;;;12.47;8.37;;;11.40;99.90;;;;;;4143987;28;20084;-59
2023/05/08 01:09:45;;;;;;;10.87;6.97;;;11.50;99.90;;;;;;4127469;28;20104;-59
2023/05/08 01:12:10;;;;;;;8.93;7.10;;;11.50;99.90;;;;;;4143950;28;20025;-63
2023/05/08 01:14:50;;;;;;;8.47;5.87;;;11.50;99.90;;;;;;4145575;28;20371;-62
2023/05/08 01:16:57;;;;;;;8.63;6.90;;;11.50;99.90;;;;;;4146572;28;20123;-57
2023/05/08 01:19:01;;;;;;;8.17;6.63;;;11.50;99.90;;;;;;4161419;28;20041;-65
2023/05/08 01:21:08;;;;;;;10.63;6.97;;;11.60;99.90;;;;;;4149223;28;20079;-67
2023/05/08 01:23:28;;;;;;;11.97;7.17;;;11.60;99.90;;;;;;4154252;28;20092;-70
2023/05/08 01:25:45;;;;;;;12.85;8.70;;;11.60;99.90;;;;;;4153652;28;20135;-64
2023/05/08 01:27:51;;;;;;;14.37;8.70;;;11.70;99.90;;;;;;4161340;28;20042;-65
2023/05/08 01:30:10;;;;;;;14.33;9.27;;;11.70;99.90;;;;;;4160374;28;20359;-64
2023/05/08 01:32:25;;;;;;;14.90;9.13;;;11.70;99.90;;;;;;4164075;28;20547;-71
2023/05/08 01:34:32;;;;;;;16.90;9.83;;;11.70;99.90;;;;;;4163135;28;20052;-57
2023/05/08 01:36:43;;;;;;;17.67;7.93;;;11.70;99.90;;;;;;4164213;28;20029;-58
2023/05/08 01:38:51;;;;;;;8.37;6.60;;;11.70;99.90;;;;;;4163197;28;20033;-63
2023/05/08 01:40:59;;;;;;;7.13;5.20;;;11.60;99.90;;;;;;4163911;28;20057;-65
2023/05/08 01:43:20;;;;;;;5.60;4.50;;;11.50;99.90;;;;;;4163145;28;20080;-69
2023/05/08 01:45:29;;;;;;;10.60;4.67;;;11.50;99.90;;;;;;4153591;28;20038;-59
2023/05/08 01:47:35;;;;;;;7.00;4.80;;;11.50;99.90;;;;;;4152968;28;20050;-68
2023/05/08 01:49:45;;;;;;;5.10;4.33;;;11.50;99.90;;;;;;4151751;28;20030;-58
2023/05/08 01:51:51;;;;;;;8.47;4.93;;;11.50;99.90;;;;;;4146586;28;20474;-66
2023/05/08 01:54:00;;;;;;;9.37;5.20;;;11.60;99.90;;;;;;4147066;28;20556;-67
2023/05/08 01:56:08;;;;;;;7.40;4.33;;;11.60;99.90;;;;;;4145976;28;20046;-70
2023/05/08 01:58:10;;;;;;;5.07;3.80;;;11.60;99.90;;;;;;4146953;28;20084;-62
2023/05/08 02:00:13;;;;;;;5.97;4.23;;;11.60;99.90;;;;;;4146557;28;20022;-58
2023/05/08 02:02:16;;;;;;;5.47;3.67;;;11.60;99.90;;;;;;4146119;28;20068;-59
2023/05/08 02:04:18;;;;;;;5.13;3.90;;;11.60;99.90;;;;;;4161736;28;20049;-59
2023/05/08 02:06:21;;;;;;;4.67;4.13;;;11.70;99.90;;;;;;4163643;28;20079;-61
2023/05/08 02:08:24;;;;;;;6.73;4.23;;;11.60;99.90;;;;;;4162529;28;20482;-65
2023/05/08 02:10:27;;;;;;;6.30;4.30;;;11.70;99.90;;;;;;4154588;28;20457;-65
2023/05/08 02:12:30;;;;;;;6.37;4.07;;;11.70;99.90;;;;;;4146152;28;20030;-68
2023/05/08 02:14:32;;;;;;;9.67;4.93;;;11.70;99.90;;;;;;4147249;28;20038;-65
2023/05/08 02:16:35;;;;;;;7.40;5.13;;;11.70;99.90;;;;;;4146174;28;20034;-61
2023/05/08 02:18:39;;;;;;;6.93;4.80;;;11.60;99.90;;;;;;4146786;28;20445;-61
2023/05/08 02:20:41;;;;;;;4.50;3.70;;;11.60;99.90;;;;;;4146109;28;20072;-70
2023/05/08 02:22:44;;;;;;;5.23;3.87;;;11.60;99.90;;;;;;4146593;28;20026;-60
2023/05/08 02:24:46;;;;;;;4.33;3.53;;;11.50;99.90;;;;;;4146068;28;20049;-62
2023/05/08 02:26:49;;;;;;;4.13;3.67;;;11.50;99.90;;;;;;4161027;28;20103;-65
2023/05/08 02:28:52;;;;;;;5.60;3.70;;;11.50;99.90;;;;;;4145505;28;20033;-57
2023/05/08 02:30:56;;;;;;;4.17;3.40;;;11.40;99.90;;;;;;4161821;28;20033;-59
2023/05/08 02:32:59;;;;;;;9.03;3.70;;;11.40;99.90;;;;;;4162521;28;20107;-71
2023/05/08 02:35:01;;;;;;;3.93;3.57;;;11.40;99.90;;;;;;4162166;28;20059;-60
2023/05/08 02:37:04;;;;;;;4.53;3.73;;;11.30;99.90;;;;;;4155541;28;20041;-58
2023/05/08 02:39:09;;;;;;;7.30;3.70;;;11.30;99.90;;;;;;4145329;28;20494;-62
2023/05/08 02:41:12;;;;;;;4.87;3.80;;;11.20;99.90;;;;;;4146679;28;20077;-56
2023/05/08 02:43:14;;;;;;;4.67;4.07;;;11.20;99.90;;;;;;4145170;28;20038;-67
2023/05/08 02:45:16;;;;;;;6.40;3.67;;;11.20;99.90;;;;;;4147165;28;20030;-64
2023/05/08 02:47:28;;;;;;;4.37;3.97;;;11.10;99.90;;;;;;4145367;28;20444;-59
2023/05/08 02:49:58;;;;;;;5.27;3.60;;;11.10;99.90;;;;;;4146705;28;20429;-60
2023/05/08 02:52:12;;;;;;;6.03;3.83;;;11.00;99.90;;;;;;4144815;28;20037;-63
2023/05/08 02:54:23;;;;;;;6.37;3.67;;;11.00;99.90;;;;;;4146468;28;20084;-61
2023/05/08 02:56:39;;;;;;;5.73;4.27;;;11.10;99.90;;;;;;4145427;28;20080;-53
2023/05/08 02:59:12;;;;;;;5.43;4.20;;;11.10;99.90;;;;;;4156430;28;20029;-66
2023/05/08 03:01:19;;;;;;;4.63;3.97;;;11.10;99.90;;;;;;4154055;28;20072;-68
2023/05/08 03:03:43;;;;;;;6.50;4.43;;;11.10;99.90;;;;;;4145909;28;20045;-62
2023/05/08 03:05:51;;;;;;;5.27;3.60;;;11.10;99.90;;;;;;4145727;28;20100;-64
2023/05/08 03:07:56;;;;;;;5.83;4.40;;;11.10;99.90;;;;;;4145955;28;20038;-64
2023/05/08 03:10:04;;;;;;;6.80;4.53;;;11.10;99.90;;;;;;4145450;28;20034;-71
2023/05/08 03:12:09;;;;;;;4.87;4.10;;;11.10;99.90;;;;;;4146151;28;20479;-59
2023/05/08 03:14:15;;;;;;;7.87;4.40;;;11.10;99.90;;;;;;4145339;28;20088;-65
2023/05/08 03:16:23;;;;;;;8.27;4.00;;;11.10;99.90;;;;;;4145896;28;20375;-68
2023/05/08 03:18:48;;;;;;;6.37;4.30;;;11.10;99.90;;;;;;4144202;28;20438;-64
2023/05/08 03:20:53;;;;;;;5.37;4.07;;;11.10;99.90;;;;;;4148973;28;20478;-68
2023/05/08 03:22:55;;;;;;;5.93;4.87;;;11.00;99.90;;;;;;4144630;28;20053;-64
2023/05/08 03:25:01;;;;;;;10.27;5.37;;;11.10;99.90;;;;;;4155360;28;20397;-62
2023/05/08 03:27:03;;;;;;;6.57;4.33;;;11.10;99.90;;;;;;4146763;28;20372;-67
2023/05/08 03:29:05;;;;;;;5.60;3.63;;;11.10;99.90;;;;;;4145983;28;20107;-61
2023/05/08 03:31:07;;;;;;;5.50;4.43;;;11.10;99.90;;;;;;4144403;28;20442;-59
2023/05/08 03:33:10;;;;;;;5.17;4.67;;;11.10;99.90;;;;;;4145927;28;20084;-64
2023/05/08 03:35:14;;;;;;;5.47;4.17;;;11.10;99.90;;;;;;4144930;28;20533;-63
2023/05/08 03:37:15;;;;;;;6.00;4.67;;;11.10;99.90;;;;;;4146065;28;20499;-64
2023/05/08 03:39:16;;;;;;;7.37;4.20;;;11.10;99.90;;;;;;4151648;28;20034;-70
2023/05/08 03:41:17;;;;;;;5.63;4.57;;;11.10;99.90;;;;;;4157830;28;20133;-63
2023/05/08 03:43:20;;;;;;;5.17;4.67;;;11.10;99.90;;;;;;4158815;28;20053;-61
2023/05/08 03:45:22;;;;;;;5.57;4.47;;;11.10;99.90;;;;;;4162234;28;20095;-67
2023/05/08 03:47:27;;;;;;;6.53;4.97;;;11.10;99.90;;;;;;4144129;28;20089;-59
2023/05/08 03:49:29;;;;;;;6.43;4.83;;;11.20;99.90;;;;;;4145384;28;20034;-66
2023/05/08 03:51:31;;;;;;;15.93;5.70;;;11.20;99.90;;;;;;4144954;28;20064;-60
2023/05/08 03:53:32;;;;;;;9.67;5.20;;;11.20;99.90;;;;;;4144641;28;20080;-67
2023/05/08 03:55:35;;;;;;;6.97;5.33;;;11.20;99.90;;;;;;4145222;28;20076;-67
2023/05/08 03:57:56;;;;;;;12.10;4.97;;;11.20;99.90;;;;;;4153742;28;20532;-69
2023/05/08 04:00:02;;;;;;;7.53;5.00;;;11.20;99.90;;;;;;4161198;28;20524;-65
2023/05/08 04:02:20;;;;;;;5.37;4.50;;;11.20;99.90;;;;;;4160828;28;20072;-66
2023/05/08 04:04:39;;;;;;;7.97;5.37;;;11.30;99.90;;;;;;4160987;28;20021;-68
2023/05/08 04:06:51;;;;;;;7.90;5.43;;;11.20;99.90;;;;;;4161254;28;20033;-79
2023/05/08 04:09:11;;;;;;;6.17;5.23;;;11.30;99.90;;;;;;4160447;28;20079;-70
2023/05/08 04:11:33;;;;;;;7.05;5.05;;;11.30;99.90;;;;;;4153399;28;20091;-71
2023/05/08 04:13:41;;;;;;;6.67;4.80;;;11.30;99.90;;;;;;4143767;28;20084;-72
2023/05/08 04:15:58;;;;;;;8.43;6.33;;;11.30;99.90;;;;;;4148635;28;20049;-67
2023/05/08 04:18:06;;;;;;;6.23;4.57;;;11.30;99.90;;;;;;4158449;28;20104;-62
2023/05/08 04:20:12;;;;;;;5.97;4.67;;;11.30;99.90;;;;;;4160928;28;20037;-64
2023/05/08 04:22:16;;;;;;;5.77;4.73;;;11.30;99.90;;;;;;4160159;28;20095;-63
2023/05/08 04:24:19;;;;;;;7.70;5.43;;;11.30;99.90;;;;;;4160950;28;20045;-68
2023/05/08 04:26:21;;;;;;;6.80;5.30;;;11.40;99.90;;;;;;4158102;28;20041;-66
2023/05/08 04:28:22;;;;;;;8.83;5.63;;;11.40;99.90;;;;;;4160138;28;20053;-65
2023/05/08 04:30:24;;;;;;;7.80;5.60;;;11.40;99.90;;;;;;4160918;28;20025;-67
2023/05/08 04:32:27;;;;;;;8.17;5.60;;;11.40;99.90;;;;;;4160108;28;20041;-73
2023/05/08 04:34:28;;;;;;;7.33;6.00;;;11.40;99.90;;;;;;4160622;28;20033;-63
2023/05/08 04:36:32;;;;;;;8.60;5.73;;;11.50;99.90;;;;;;4155519;28;20088;-59
2023/05/08 04:38:36;;;;;;;8.80;5.50;;;11.50;99.90;;;;;;4161052;28;20042;-58
2023/05/08 04:40:37;;;;;;;8.03;5.83;;;11.50;99.90;;;;;;4159424;28;20131;-66
2023/05/08 04:42:41;;;;;;;9.27;5.77;;;11.50;99.90;;;;;;4149913;28;20478;-68
2023/05/08 04:44:42;;;;;;;7.37;5.70;;;11.50;99.90;;;;;;4159602;28;20046;-64
2023/05/08 04:46:43;;;;;;;8.07;5.97;;;11.40;99.90;;;;;;4158285;28;20042;-56
2023/05/08 04:48:45;;;;;;;7.53;6.03;;;11.40;99.90;;;;;;4157213;28;20049;-58
2023/05/08 04:50:46;;;;;;;6.33;5.67;;;11.40;99.90;;;;;;4159873;28;20053;-66
2023/05/08 04:52:47;;;;;;;9.83;6.40;;;11.40;99.90;;;;;;4146983;28;20846;-72
2023/05/08 04:54:48;;;;;;;8.53;6.10;;;11.40;99.90;;;;;;4145316;28;20034;-68
2023/05/08 04:56:49;;;;;;;9.73;6.63;;;11.40;99.90;;;;;;4148421;28;20092;-64
2023/05/08 04:58:50;;;;;;;14.23;8.10;;;11.40;99.90;;;;;;4154526;28;20072;-66
2023/05/08 05:00:51;;;;;;;10.80;7.50;;;11.40;99.90;;;;;;4149435;28;20099;-67
2023/05/08 05:02:52;;;;;;;11.47;7.93;;;11.40;99.90;;;;;;4144099;28;20077;-57
2023/05/08 05:04:57;;;;;;;9.07;7.43;;;11.30;99.90;;;;;;4154509;28;20017;-67
2023/05/08 05:06:58;;;;;;;11.20;8.60;;;11.30;99.90;;;;;;4163664;28;20103;-62
2023/05/08 05:08:59;;;;;;;9.30;7.37;;;11.30;99.90;;;;;;4159064;28;20384;-69
2023/05/08 05:11:00;;;;;;;15.83;12.77;;;11.20;99.90;;;;;;4146126;28;20096;-65
2023/05/08 05:13:01;;;;;;;11.73;9.40;;;11.30;99.90;;;;;;4147770;28;20022;-68
2023/05/08 05:15:03;;;;;;;12.53;9.03;;;11.20;99.90;;;;;;4147034;28;20030;-59
2023/05/08 05:17:04;;;;;;;10.23;7.50;;;11.20;99.90;;;;;;4147117;28;20062;-59
2023/05/08 05:19:06;;;;;;;11.13;7.23;;;11.20;99.90;;;;;;4146548;28;20379;-67
2023/05/08 05:21:07;;;;;;;9.10;7.10;;;11.30;99.90;;;;;;4147311;28;20037;-66
2023/05/08 05:23:08;;;;;;;11.07;7.83;;;11.30;99.90;;;;;;4146258;28;20037;-59
2023/05/08 05:25:09;;;;;;;11.43;8.77;;;11.40;99.90;;;;;;4147843;28;20030;-58
2023/05/08 05:27:10;;;;;;;11.57;8.43;;;11.40;99.90;;;;;;4146251;28;20080;-72
2023/05/08 05:29:12;;;;;;;10.70;7.93;;;11.40;99.90;;;;;;4147527;28;20076;-69
2023/05/08 05:31:13;;;;;;;8.60;6.57;;;11.40;99.90;;;;;;4146160;28;20037;-58
2023/05/08 05:33:14;;;;;;;10.13;6.80;;;11.40;99.90;;;;;;4147083;28;20526;-57
2023/05/08 05:35:15;;;;;;;8.23;6.77;;;11.40;99.90;;;;;;4146826;28;20455;-68
2023/05/08 05:37:16;;;;;;;8.23;6.40;;;11.40;99.90;;;;;;4146827;28;20045;-57
2023/05/08 05:39:17;;;;;;;13.10;7.27;;;11.40;99.90;;;;;;4147009;28;20541;-59
2023/05/08 05:41:18;;;;;;;10.50;7.33;;;11.50;99.90;;;;;;4127897;28;20081;-74
2023/05/08 05:43:20;;;;;;;13.17;6.83;;;11.50;99.90;;;;;;4147242;28;20037;-59
2023/05/08 05:45:21;;;;;;;9.50;6.57;;;11.50;99.90;;;;;;4146163;28;20434;-58
2023/05/08 05:47:22;;;;;;;7.80;6.07;;;11.50;99.90;;;;;;4147041;28;20121;-70
2023/05/08 05:49:23;;;;;;;8.37;5.77;;;11.60;99.90;;;;;;4145779;28;20045;-73
2023/05/08 05:51:24;;;;;;;9.40;6.47;;;11.60;99.90;;;;;;4147396;28;20057;-72
2023/05/08 05:53:25;;;;;;;8.03;7.00;;;11.70;99.90;;;;;;4146286;28;20442;-72
2023/05/08 05:55:27;;;;;;;8.73;7.80;;;11.70;99.90;;;;;;4146824;28;20375;-74
2023/05/08 05:57:28;;;;;;;9.67;6.67;;;11.70;99.90;;;;;;4146196;28;20038;-70
2023/05/08 05:59:29;;;;;;;8.57;5.97;;;11.80;99.90;;;;;;4129498;28;20064;-69
2023/05/08 06:01:30;;;;;;;9.90;6.50;;;11.80;99.90;;;;;;4146106;28;20033;-60
2023/05/08 06:03:31;;;;;;;7.93;6.53;;;11.80;99.90;;;;;;4146910;28;20026;-70
2023/05/08 06:05:32;;;;;;;10.63;6.70;;;11.80;99.90;;;;;;4146585;28;20453;-75
2023/05/08 06:07:34;;;;;;;9.60;6.90;;;11.90;99.90;;;;;;4146400;28;20434;-70
2023/05/08 06:09:35;;;;;;;9.20;6.73;;;12.00;99.90;;;;;;4146428;28;20026;-62
2023/05/08 06:11:36;;;;;;;10.40;7.00;;;12.00;99.90;;;;;;4145936;28;20077;-60
2023/05/08 06:13:40;;;;;;;11.20;8.13;;;12.00;99.90;;;;;;4129368;28;20384;-61
2023/05/08 06:15:42;;;;;;;10.40;7.33;;;12.10;99.90;;;;;;4145188;28;20033;-58
2023/05/08 06:17:43;;;;;;;10.80;6.63;;;12.10;99.90;;;;;;4146226;28;20438;-59
2023/05/08 06:19:49;;;;;;;10.37;7.07;;;12.10;99.90;;;;;;4145501;28;20117;-59
2023/05/08 06:21:51;;;;;;;10.17;6.00;;;12.10;99.90;;;;;;4146278;28;20046;-60
2023/05/08 06:23:52;;;;;;;10.53;6.37;;;12.10;99.90;;;;;;4145579;28;20125;-73
2023/05/08 06:25:53;;;;;;;6.83;5.13;;;12.10;99.90;;;;;;4146912;28;20076;-61
2023/05/08 06:27:54;;;;;;;7.17;5.30;;;12.10;99.90;;;;;;4145451;28;20119;-59
2023/05/08 06:29:55;;;;;;;7.63;5.07;;;12.20;99.90;;;;;;4146730;28;20034;-59
2023/05/08 06:31:57;;;;;;;6.17;4.40;;;12.30;99.90;;;;;;4145497;28;20112;-57
2023/05/08 06:33:58;;;;;;;9.80;5.30;;;12.30;99.90;;;;;;4146266;28;20085;-73
2023/05/08 06:35:59;;;;;;;6.17;4.83;;;12.30;99.90;;;;;;4145350;28;20026;-60
2023/05/08 06:38:00;;;;;;;5.53;4.40;;;12.30;99.90;;;;;;4146136;28;20034;-59
2023/05/08 06:40:02;;;;;;;7.37;4.77;;;12.40;99.90;;;;;;4145658;28;20070;-72
2023/05/08 06:42:05;;;;;;;6.50;4.93;;;12.40;99.90;;;;;;4145779;28;20038;-74
2023/05/08 06:44:06;;;;;;;6.70;4.90;;;12.40;99.90;;;;;;4146147;28;20083;-74
2023/05/08 06:46:07;;;;;;;6.90;4.73;;;12.40;99.90;;;;;;4144630;28;20556;-74
2023/05/08 06:48:08;;;;;;;6.17;4.60;;;12.40;99.90;;;;;;4146234;28;20065;-59
2023/05/08 06:50:10;;;;;;;7.63;5.40;;;12.50;99.90;;;;;;4144631;28;20088;-73
2023/05/08 06:52:11;;;;;;;5.97;4.53;;;12.40;99.90;;;;;;4145947;28;20034;-58
2023/05/08 06:54:12;;;;;;;6.37;4.73;;;12.50;99.90;;;;;;4145194;28;20026;-58
2023/05/08 06:56:13;;;;;;;5.00;4.13;;;12.50;99.90;;;;;;4145780;28;20046;-73
2023/05/08 06:58:14;;;;;;;4.30;3.90;;;12.40;99.90;;;;;;4145032;28;20034;-71
2023/05/08 07:00:15;;;;;;;8.00;5.10;;;12.50;99.90;;;;;;4146263;28;20421;-71
2023/05/08 07:02:16;;;;;;;7.37;4.93;;;12.50;99.90;;;;;;4144958;28;20092;-69
2023/05/08 07:04:17;;;;;;;7.10;5.07;;;12.50;99.90;;;;;;4145921;28;20068;-59
2023/05/08 07:06:19;;;;;;;12.27;5.17;;;12.50;99.90;;;;;;4145153;28;20022;-60
2023/05/08 07:08:20;;;;;;;8.67;5.20;;;12.60;99.90;;;;;;4145662;28;20033;-59
2023/05/08 07:10:21;;;;;;;8.97;5.00;;;12.60;99.90;;;;;;4144973;28;20038;-73
2023/05/08 07:12:22;;;;;;;6.90;5.00;;;12.70;99.90;;;;;;4145331;28;20469;-58
2023/05/08 07:14:24;;;;;;;6.53;5.27;;;12.70;99.90;;;;;;4145550;28;20034;-58
2023/05/08 07:16:25;;;;;;;6.27;5.37;;;12.70;99.90;;;;;;4144560;28;20033;-58
2023/05/08 07:18:26;;;;;;;4.93;4.23;;;12.70;99.90;;;;;;4145695;28;20038;-71
2023/05/08 07:20:27;;;;;;;8.97;5.17;;;12.80;99.90;;;;;;4144778;28;20026;-70
2023/05/08 07:22:29;;;;;;;7.30;5.90;;;12.70;99.90;;;;;;4145511;28;20096;-68
2023/05/08 07:24:31;;;;;;;7.00;4.40;;;12.70;99.90;;;;;;4126980;28;20042;-71
2023/05/08 07:26:32;;;;;;;7.60;5.10;;;12.70;99.90;;;;;;4145082;28;20054;-73
2023/05/08 07:28:33;;;;;;;6.53;4.73;;;12.80;99.90;;;;;;4143800;28;20483;-75
2023/05/08 07:30:35;;;;;;;5.07;4.33;;;12.80;99.90;;;;;;4145364;28;20050;-71
2023/05/08 07:32:37;;;;;;;9.90;7.70;;;12.90;99.90;;;;;;4144015;28;20042;-72
2023/05/08 07:34:39;;;;;;;11.90;9.67;;;12.90;99.90;;;;;;4145201;28;20108;-63
2023/05/08 07:36:40;;;;;;;8.57;6.60;;;12.80;99.90;;;;;;4144128;28;20100;-71
2023/05/08 07:38:41;;;;;;;11.57;8.43;;;12.80;99.90;;;;;;4145064;28;20030;-72
2023/05/08 07:40:42;;;;;;;12.30;7.83;;;12.70;99.90;;;;;;4145032;28;20030;-71
2023/05/08 07:42:44;;;;;;;12.43;6.37;;;12.60;99.90;;;;;;4144222;28;20045;-74
2023/05/08 07:44:45;;;;;;;30.47;10.03;;;12.60;99.90;;;;;;4144974;28;20068;-58
2023/05/08 07:46:46;;;;;;;15.73;8.83;;;12.50;99.90;;;;;;4143479;28;20124;-69
2023/05/08 07:48:47;;;;;;;11.70;8.20;;;12.50;99.90;;;;;;4145363;28;20046;-74
2023/05/08 07:50:51;;;;;;;14.23;11.20;;;12.60;99.90;;;;;;4144032;28;20034;-71
2023/05/08 07:52:53;;;;;;;13.83;9.57;;;12.50;99.90;;;;;;4145658;28;20084;-68
2023/05/08 07:54:54;;;;;;;12.33;9.20;;;12.40;99.90;;;;;;4144286;28;20057;-60
2023/05/08 07:56:55;;;;;;;13.33;8.60;;;12.40;99.90;;;;;;4145052;28;20033;-65
2023/05/08 07:58:56;;;;;;;13.90;9.97;;;12.40;99.90;;;;;;4144316;28;20076;-60
2023/05/08 08:00:57;;;;;;;60.57;14.53;;;12.40;99.90;;;;;;4145077;28;20088;-60
2023/05/08 08:02:58;;;;;;;37.87;12.17;;;12.30;99.90;;;;;;4144197;28;20429;-67
2023/05/08 08:05:00;;;;;;;36.60;11.97;;;12.30;99.90;;;;;;4144838;28;20041;-70
2023/05/08 08:07:01;;;;;;;16.17;8.27;;;12.30;99.90;;;;;;4144282;28;20075;-57
2023/05/08 08:09:02;;;;;;;10.47;6.40;;;12.30;99.90;;;;;;4144532;28;20050;-66
2023/05/08 08:11:06;;;;;;;9.53;6.40;;;12.30;99.90;;;;;;4144466;28;20034;-58
2023/05/08 08:13:07;;;;;;;15.50;8.17;;;12.30;99.90;;;;;;4144607;28;20022;-74
2023/05/08 08:15:09;;;;;;;19.37;7.70;;;12.30;99.90;;;;;;4144205;28;20088;-59
2023/05/08 08:17:10;;;;;;;10.60;6.03;;;12.30;99.90;;;;;;4143284;28;20431;-59
2023/05/08 08:19:11;;;;;;;10.07;5.07;;;12.20;99.90;;;;;;4127017;28;20050;-59
2023/05/08 08:21:12;;;;;;;29.17;6.27;;;12.20;99.90;;;;;;4143407;28;20046;-68
2023/05/08 08:23:14;;;;;;;20.27;6.27;;;12.10;99.90;;;;;;4144917;28;20026;-58
2023/05/08 08:25:15;;;;;;;28.77;8.27;;;12.00;99.90;;;;;;4143914;28;20029;-72
2023/05/08 08:27:16;;;;;;;30.07;8.03;;;12.00;99.90;;;;;;4145143;28;20038;-59
2023/05/08 08:29:17;;;;;;;15.53;3.70;;;11.90;99.90;;;;;;4143678;28;20133;-74
2023/05/08 08:31:18;;;;;;;9.70;2.90;;;11.90;99.90;;;;;;4144179;28;20088;-59
2023/05/08 08:33:20;;;;;;;46.40;8.07;;;11.80;99.90;;;;;;4143548;28;20084;-58
2023/05/08 08:35:27;;;;;;;16.50;4.30;;;11.80;99.90;;;;;;4144910;28;20409;-58
2023/05/08 08:37:29;;;;;;;7.33;4.97;;;11.80;99.90;;;;;;4143363;28;20046;-71
2023/05/08 08:39:33;;;;;;;32.13;6.87;;;11.90;99.90;;;;;;4145961;28;20434;-73
2023/05/08 08:41:34;;;;;;;27.80;7.00;;;11.90;99.90;;;;;;4147026;28;20013;-73
2023/05/08 08:43:38;;;;;;;19.83;4.40;;;12.00;99.90;;;;;;4147486;28;20078;-61
2023/05/08 08:45:40;;;;;;;10.33;3.90;;;12.00;99.90;;;;;;4146897;28;20014;-58
2023/05/08 08:47:44;;;;;;;2.37;1.60;;;12.10;99.90;;;;;;4146880;28;20053;-58
2023/05/08 08:49:50;;;;;;;9.53;2.20;;;12.20;99.90;;;;;;4147444;28;20049;-59
2023/05/08 08:51:59;;;;;;;3.27;2.20;;;12.20;99.90;;;;;;4146951;28;20866;-73
2023/05/08 08:54:10;;;;;;;10.07;2.70;;;12.20;99.90;;;;;;4147316;28;20466;-58
2023/05/08 08:56:14;;;;;;;4.73;2.83;;;12.20;99.90;;;;;;4147331;28;20026;-59
2023/05/08 08:58:31;;;;;;;6.90;2.30;;;12.30;99.90;;;;;;4147500;28;20426;-71
2023/05/08 09:00:35;;;;;;;6.40;2.93;;;12.30;99.90;;;;;;4146906;28;20446;-71
2023/05/08 09:02:36;;;;;;;4.30;2.63;;;12.30;99.90;;;;;;4147362;28;20022;-74
2023/05/08 09:04:37;;;;;;;3.73;2.60;;;12.40;99.90;;;;;;4146574;28;20077;-56
2023/05/08 09:06:42;;;;;;;7.30;2.80;;;12.40;99.90;;;;;;4147311;28;20030;-58
2023/05/08 09:08:43;;;;;;;3.80;2.03;;;12.50;99.90;;;;;;4146083;28;20053;-68
2023/05/08 09:10:45;;;;;;;3.37;2.07;;;12.60;99.90;;;;;;4129941;28;20038;-58
2023/05/08 09:12:47;;;;;;;4.13;2.23;;;12.70;99.90;;;;;;4146356;28;20042;-68
2023/05/08 09:14:49;;;;;;;4.33;2.40;;;12.80;99.90;;;;;;4147861;28;20041;-67
2023/05/08 09:16:52;;;;;;;4.40;2.20;;;12.90;99.90;;;;;;4146254;28;20075;-58
2023/05/08 09:18:53;;;;;;;10.93;3.17;;;13.00;99.90;;;;;;4146750;28;20442;-62
2023/05/08 09:20:55;;;;;;;6.60;2.50;;;13.00;99.90;;;;;;4146683;28;20123;-60
2023/05/08 09:22:59;;;;;;;7.93;2.23;;;13.00;99.90;;;;;;4147382;28;20042;-67
2023/05/08 09:25:02;;;;;;;2.67;1.30;;;13.00;99.90;;;;;;4146039;28;20018;-60
2023/05/08 09:27:15;;;;;;;4.43;2.97;;;13.00;99.90;;;;;;4147298;28;20256;-75
2023/05/08 09:29:21;;;;;;;4.57;2.90;;;12.90;99.90;;;;;;4145954;28;20057;-72
2023/05/08 09:31:34;;;;;;;7.63;3.27;;;12.90;99.90;;;;;;4147188;28;20034;-68
2023/05/08 09:33:43;;;;;;;7.93;3.70;;;12.90;99.90;;;;;;4146100;28;20056;-67
2023/05/08 09:35:47;;;;;;;22.07;5.90;;;13.00;99.90;;;;;;4129882;28;20435;-59
2023/05/08 09:37:48;;;;;;;15.10;4.67;;;13.00;99.90;;;;;;4146281;28;20026;-61
2023/05/08 09:39:49;;;;;;;9.60;3.50;;;13.10;99.90;;;;;;4146608;28;20556;-72
2023/05/08 09:41:58;;;;;;;2.80;2.23;;;13.20;99.90;;;;;;4146349;28;20018;-60
2023/05/08 09:44:01;;;;;;;3.07;2.10;;;13.30;99.90;;;;;;4146469;28;20099;-60
2023/05/08 09:46:22;;;;;;;2.10;1.90;;;13.30;99.90;;;;;;4146329;28;20045;-60
2023/05/08 09:48:36;;;;;;;2.03;1.77;;;13.30;99.90;;;;;;4146728;28;20042;-58
2023/05/08 09:50:38;;;;;;;3.90;2.10;;;13.30;99.90;;;;;;4145342;28;20026;-60
2023/05/08 09:52:45;;;;;;;4.30;2.30;;;13.40;99.90;;;;;;4146475;28;20030;-60
2023/05/08 09:54:55;;;;;;;4.33;2.63;;;13.40;99.90;;;;;;4128439;28;20105;-58
2023/05/08 09:56:56;;;;;;;5.17;2.20;;;13.50;99.90;;;;;;4145525;28;20072;-70
2023/05/08 09:58:57;;;;;;;4.13;2.20;;;13.50;99.90;;;;;;4146168;28;20057;-68
2023/05/08 10:00:59;;;;;;;2.50;2.28;;;13.50;99.90;;;;;;4146002;28;20073;-60
2023/05/08 10:03:01;;;;;;;3.63;2.10;;;13.60;99.90;;;;;;4146734;28;20080;-57
2023/05/08 10:05:04;;;;;;;4.17;2.00;;;13.60;99.90;;;;;;4145239;28;20046;-68
2023/05/08 10:07:05;;;;;;;2.53;1.87;;;13.60;99.90;;;;;;4146924;28;20021;-64
2023/05/08 10:09:12;;;;;;;2.47;2.10;;;13.60;99.90;;;;;;4145543;28;20037;-59
2023/05/08 10:11:20;;;;;;;2.47;1.77;;;13.60;99.90;;;;;;4146945;28;20053;-69
2023/05/08 10:13:22;;;;;;;5.97;1.90;;;13.50;99.90;;;;;;4145477;28;20540;-67
2023/05/08 10:15:27;;;;;;;4.20;2.33;;;13.50;99.90;;;;;;4146822;28;20034;-64
2023/05/08 10:17:41;;;;;;;7.50;3.53;;;13.50;99.90;;;;;;4145313;28;20033;-58
2023/05/08 10:19:47;;;;;;;5.60;2.85;;;13.60;99.90;;;;;;4146558;28;20112;-68
2023/05/08 10:21:53;;;;;;;5.50;3.10;;;13.70;99.90;;;;;;4145534;28;20084;-63
2023/05/08 10:23:57;;;;;;;3.50;2.57;;;13.70;99.90;;;;;;4146487;28;20056;-64
2023/05/08 10:26:06;;;;;;;5.33;2.80;;;13.80;99.90;;;;;;4145406;28;20072;-58
2023/05/08 10:28:29;;;;;;;4.23;2.60;;;13.80;99.90;;;;;;4146394;28;20081;-59
2023/05/08 10:30:32;;;;;;;4.57;2.90;;;13.80;99.90;;;;;;4145428;28;20045;-69
2023/05/08 10:32:39;;;;;;;4.40;2.80;;;13.80;99.90;;;;;;4146473;28;20029;-64
2023/05/08 10:34:41;;;;;;;7.35;2.60;;;13.80;99.90;;;;;;4145022;28;20099;-61
2023/05/08 10:36:42;;;;;;;5.10;2.55;;;13.80;99.90;;;;;;4145765;28;20072;-58
2023/05/08 10:38:44;;;;;;;6.07;3.00;;;13.90;99.90;;;;;;4145383;28;20033;-58
2023/05/08 10:40:45;;;;;;;7.30;2.83;;;13.90;99.90;;;;;;4146532;28;20038;-58
2023/05/08 10:42:48;;;;;;;5.63;2.55;;;14.00;99.90;;;;;;4145067;28;20466;-58